This is the latest recevied weather packets stored in our database for station/object N6WDO. If no packets are shown the sender has not sent any weather packets the latest 10 day(s).
| Time | Temp. | Humidity | Pressure | Rain* | Wind** | Luminosity | Snow |
|---|---|---|---|---|---|---|---|
| 1777954236 | 11.11° C | 92% | 1015.3 hPa | 0 mm | - | 0 W/m² | - |
| 1777953933 | 11.11° C | 92% | 1015.4 hPa | 0 mm | - | 0 W/m² | - |
| 1777953630 | 10.56° C | 92% | 1015.2 hPa | 0 mm | - | 0 W/m² | - |
| 1777943324 | 12.22° C | 85% | 1015.2 hPa | 0 mm | - | 89 W/m² | - |
| 1777942716 | 12.22° C | 87% | 1015.6 hPa | 0 mm | - | 119 W/m² | - |
| 1777942413 | 12.22° C | 87% | 1015.5 hPa | 0 mm | - | 116 W/m² | - |
| 1777941504 | 12.78° C | 83% | 1015.3 hPa | 0 mm | - | 113 W/m² | - |
| 1777941201 | 12.78° C | 83% | 1015.3 hPa | 0 mm | - | 126 W/m² | - |
| 1777940897 | 12.78° C | 84% | 1015.5 hPa | 0 mm | - | 145 W/m² | - |
| 1777940293 | 12.78° C | 83% | 1015.4 hPa | 0 mm | - | 170 W/m² | - |
| 1777938777 | 11.67° C | 87% | 1015.5 hPa | 0 mm | - | 189 W/m² | - |
| 1777934535 | 10.56° C | 91% | 1015.9 hPa | 0 mm | - | 117 W/m² | - |
| 1777934231 | 11.11° C | 90% | 1016.1 hPa | 0 mm | - | 132 W/m² | - |
| 1777933624 | 10.56° C | 91% | 1016.2 hPa | 0 mm | - | 137 W/m² | - |
| 1777933018 | 10.56° C | 91% | 1016.3 hPa | 0 mm | - | 131 W/m² | - |
| 1777932715 | 10.56° C | 91% | 1016.3 hPa | 0 mm | - | 171 W/m² | - |
| 1777931805 | 10° C | 93% | 1016.5 hPa | 1.27 mm | - | 138 W/m² | - |
| 1777929984 | 10° C | 93% | 1016.8 hPa | 0 mm | - | 51 W/m² | - |
| 1777929681 | 10° C | 93% | 1016.9 hPa | 0 mm | - | 55 W/m² | - |
| 1777929379 | 10° C | 93% | 1017 hPa | 0 mm | - | 75 W/m² | - |
| 1777929075 | 10.56° C | 92% | 1016.8 hPa | 0 mm | - | 86 W/m² | - |
| 1777928167 | 10.56° C | 92% | 1016.9 hPa | 0 mm | - | 101 W/m² | - |
| 1777922715 | 10° C | 91% | 1017.2 hPa | 0 mm | - | 111 W/m² | - |
| 1777919681 | 9.44° C | 95% | 1017.3 hPa | 0 mm | - | 104 W/m² | - |
| 1777919379 | 9.44° C | 95% | 1017.1 hPa | 1.78 mm | - | 105 W/m² | - |
* Rain latest hour (hover to see other rain measurements)
** Current wind speed in m/s (hover to see current wind gust speed)